sensor_id;sensor_type;location;lat;lon;timestamp;temperature;humidity
53412;DHT22;39307;52.870;13.660;2024-03-29T00:02:17;8.90;70.20
53412;DHT22;39307;52.870;13.660;2024-03-29T00:04:44;8.90;70.20
53412;DHT22;39307;52.870;13.660;2024-03-29T00:07:11;8.90;70.20
53412;DHT22;39307;52.870;13.660;2024-03-29T00:09:38;8.90;70.20
53412;DHT22;39307;52.870;13.660;2024-03-29T00:12:05;8.80;70.20
53412;DHT22;39307;52.870;13.660;2024-03-29T00:14:32;8.80;70.20
53412;DHT22;39307;52.870;13.660;2024-03-29T00:16:59;8.90;70.20
53412;DHT22;39307;52.870;13.660;2024-03-29T00:19:26;8.90;70.20
53412;DHT22;39307;52.870;13.660;2024-03-29T00:21:52;8.80;70.20
53412;DHT22;39307;52.870;13.660;2024-03-29T00:24:19;8.80;70.10
53412;DHT22;39307;52.870;13.660;2024-03-29T00:26:46;8.80;70.20
53412;DHT22;39307;52.870;13.660;2024-03-29T00:29:13;8.80;70.10
53412;DHT22;39307;52.870;13.660;2024-03-29T00:31:40;8.80;70.20
53412;DHT22;39307;52.870;13.660;2024-03-29T00:34:07;8.80;70.20
53412;DHT22;39307;52.870;13.660;2024-03-29T00:36:33;8.80;70.20
53412;DHT22;39307;52.870;13.660;2024-03-29T00:39:01;8.80;70.20
53412;DHT22;39307;52.870;13.660;2024-03-29T00:41:27;8.80;70.20
53412;DHT22;39307;52.870;13.660;2024-03-29T00:43:54;8.80;70.20
53412;DHT22;39307;52.870;13.660;2024-03-29T00:46:21;8.80;70.10
53412;DHT22;39307;52.870;13.660;2024-03-29T00:48:48;8.80;70.20
53412;DHT22;39307;52.870;13.660;2024-03-29T00:51:15;8.80;70.10
53412;DHT22;39307;52.870;13.660;2024-03-29T00:53:41;8.80;70.20
53412;DHT22;39307;52.870;13.660;2024-03-29T00:56:08;8.80;70.20
53412;DHT22;39307;52.870;13.660;2024-03-29T00:58:35;8.80;70.10
53412;DHT22;39307;52.870;13.660;2024-03-29T01:01:02;8.80;70.10
53412;DHT22;39307;52.870;13.660;2024-03-29T01:03:29;8.80;70.10
53412;DHT22;39307;52.870;13.660;2024-03-29T01:05:56;8.80;70.10
53412;DHT22;39307;52.870;13.660;2024-03-29T01:08:23;8.80;70.10
53412;DHT22;39307;52.870;13.660;2024-03-29T01:10:50;8.80;70.10
53412;DHT22;39307;52.870;13.660;2024-03-29T01:13:17;8.80;70.10
53412;DHT22;39307;52.870;13.660;2024-03-29T01:15:43;8.80;70.10
53412;DHT22;39307;52.870;13.660;2024-03-29T01:18:10;8.80;70.20
53412;DHT22;39307;52.870;13.660;2024-03-29T01:20:37;8.80;70.10
53412;DHT22;39307;52.870;13.660;2024-03-29T01:23:04;8.80;70.20
53412;DHT22;39307;52.870;13.660;2024-03-29T01:25:31;8.80;70.20
53412;DHT22;39307;52.870;13.660;2024-03-29T01:27:59;8.80;70.10
53412;DHT22;39307;52.870;13.660;2024-03-29T01:30:26;8.80;70.10
53412;DHT22;39307;52.870;13.660;2024-03-29T01:32:53;8.80;70.10
53412;DHT22;39307;52.870;13.660;2024-03-29T01:35:20;8.80;70.20
53412;DHT22;39307;52.870;13.660;2024-03-29T01:37:47;8.80;70.20
53412;DHT22;39307;52.870;13.660;2024-03-29T01:40:13;8.80;70.10
53412;DHT22;39307;52.870;13.660;2024-03-29T01:42:40;8.80;70.10
53412;DHT22;39307;52.870;13.660;2024-03-29T01:45:06;8.80;70.10
53412;DHT22;39307;52.870;13.660;2024-03-29T01:47:33;8.80;70.10
53412;DHT22;39307;52.870;13.660;2024-03-29T01:50:00;8.80;70.10
53412;DHT22;39307;52.870;13.660;2024-03-29T01:52:28;8.80;70.10
53412;DHT22;39307;52.870;13.660;2024-03-29T01:54:55;8.80;70.10
53412;DHT22;39307;52.870;13.660;2024-03-29T01:57:23;8.80;70.10
53412;DHT22;39307;52.870;13.660;2024-03-29T01:59:50;8.80;70.10
53412;DHT22;39307;52.870;13.660;2024-03-29T02:02:17;8.80;70.10
53412;DHT22;39307;52.870;13.660;2024-03-29T02:04:46;8.80;70.10
53412;DHT22;39307;52.870;13.660;2024-03-29T02:07:13;8.80;70.10
53412;DHT22;39307;52.870;13.660;2024-03-29T02:09:40;8.80;70.10
53412;DHT22;39307;52.870;13.660;2024-03-29T02:12:07;8.80;70.10
53412;DHT22;39307;52.870;13.660;2024-03-29T02:14:34;8.80;70.10
53412;DHT22;39307;52.870;13.660;2024-03-29T02:17:01;8.80;70.10
53412;DHT22;39307;52.870;13.660;2024-03-29T02:19:28;8.80;70.10
53412;DHT22;39307;52.870;13.660;2024-03-29T02:21:56;8.80;70.10
53412;DHT22;39307;52.870;13.660;2024-03-29T02:24:25;8.80;70.10
53412;DHT22;39307;52.870;13.660;2024-03-29T02:26:54;8.70;70.10
53412;DHT22;39307;52.870;13.660;2024-03-29T02:29:24;8.80;70.10
53412;DHT22;39307;52.870;13.660;2024-03-29T02:31:51;8.80;70.10
53412;DHT22;39307;52.870;13.660;2024-03-29T02:34:18;8.70;70.10
53412;DHT22;39307;52.870;13.660;2024-03-29T02:36:44;8.70;70.10
53412;DHT22;39307;52.870;13.660;2024-03-29T02:39:11;8.70;70.10
53412;DHT22;39307;52.870;13.660;2024-03-29T02:41:37;8.70;70.00
53412;DHT22;39307;52.870;13.660;2024-03-29T02:44:04;8.80;70.10
53412;DHT22;39307;52.870;13.660;2024-03-29T02:46:30;8.80;70.10
53412;DHT22;39307;52.870;13.660;2024-03-29T02:48:57;8.70;70.10
53412;DHT22;39307;52.870;13.660;2024-03-29T02:51:24;8.70;70.00
53412;DHT22;39307;52.870;13.660;2024-03-29T02:53:51;8.70;70.10
53412;DHT22;39307;52.870;13.660;2024-03-29T02:56:18;8.70;70.00
53412;DHT22;39307;52.870;13.660;2024-03-29T02:58:45;8.70;70.10
53412;DHT22;39307;52.870;13.660;2024-03-29T03:01:11;8.70;70.10
53412;DHT22;39307;52.870;13.660;2024-03-29T03:03:38;8.70;70.10
53412;DHT22;39307;52.870;13.660;2024-03-29T03:06:05;8.70;70.00
53412;DHT22;39307;52.870;13.660;2024-03-29T03:08:32;8.70;70.10
53412;DHT22;39307;52.870;13.660;2024-03-29T03:10:59;8.70;70.10
53412;DHT22;39307;52.870;13.660;2024-03-29T03:13:29;8.70;70.10
53412;DHT22;39307;52.870;13.660;2024-03-29T03:15:56;8.70;70.10
53412;DHT22;39307;52.870;13.660;2024-03-29T03:18:23;8.70;70.00
53412;DHT22;39307;52.870;13.660;2024-03-29T03:20:55;8.70;70.10
53412;DHT22;39307;52.870;13.660;2024-03-29T03:23:23;8.70;70.10
53412;DHT22;39307;52.870;13.660;2024-03-29T03:26:02;8.60;70.00
53412;DHT22;39307;52.870;13.660;2024-03-29T03:28:30;8.70;70.10
53412;DHT22;39307;52.870;13.660;2024-03-29T03:30:57;8.70;70.00
53412;DHT22;39307;52.870;13.660;2024-03-29T03:33:23;8.70;70.00
53412;DHT22;39307;52.870;13.660;2024-03-29T03:35:50;8.70;70.00
53412;DHT22;39307;52.870;13.660;2024-03-29T03:38:17;8.60;70.00
53412;DHT22;39307;52.870;13.660;2024-03-29T03:40:44;8.60;70.00
53412;DHT22;39307;52.870;13.660;2024-03-29T03:43:10;8.60;70.00
53412;DHT22;39307;52.870;13.660;2024-03-29T03:45:40;8.60;70.00
53412;DHT22;39307;52.870;13.660;2024-03-29T03:48:09;8.60;70.00
53412;DHT22;39307;52.870;13.660;2024-03-29T03:50:36;8.60;70.00
53412;DHT22;39307;52.870;13.660;2024-03-29T03:53:04;8.60;70.00
53412;DHT22;39307;52.870;13.660;2024-03-29T03:55:30;8.60;70.10
53412;DHT22;39307;52.870;13.660;2024-03-29T03:57:57;8.60;70.00
53412;DHT22;39307;52.870;13.660;2024-03-29T04:00:24;8.60;70.10
53412;DHT22;39307;52.870;13.660;2024-03-29T04:02:52;8.60;70.00
53412;DHT22;39307;52.870;13.660;2024-03-29T04:05:19;8.60;70.00
53412;DHT22;39307;52.870;13.660;2024-03-29T04:07:47;8.60;70.00
53412;DHT22;39307;52.870;13.660;2024-03-29T04:10:14;8.60;70.00
53412;DHT22;39307;52.870;13.660;2024-03-29T04:12:41;8.60;70.00
53412;DHT22;39307;52.870;13.660;2024-03-29T04:15:08;8.60;70.00
53412;DHT22;39307;52.870;13.660;2024-03-29T04:17:35;8.60;70.00
53412;DHT22;39307;52.870;13.660;2024-03-29T04:20:02;8.60;70.00
53412;DHT22;39307;52.870;13.660;2024-03-29T04:22:30;8.60;70.00
53412;DHT22;39307;52.870;13.660;2024-03-29T04:24:57;8.60;70.00
53412;DHT22;39307;52.870;13.660;2024-03-29T04:27:24;8.60;70.00
53412;DHT22;39307;52.870;13.660;2024-03-29T04:29:55;8.60;70.00
53412;DHT22;39307;52.870;13.660;2024-03-29T04:32:22;8.60;70.00
53412;DHT22;39307;52.870;13.660;2024-03-29T04:34:50;8.60;70.00
53412;DHT22;39307;52.870;13.660;2024-03-29T04:37:17;8.60;70.00
53412;DHT22;39307;52.870;13.660;2024-03-29T04:39:44;8.60;70.00
53412;DHT22;39307;52.870;13.660;2024-03-29T04:42:12;8.60;70.00
53412;DHT22;39307;52.870;13.660;2024-03-29T04:44:39;8.60;70.00
53412;DHT22;39307;52.870;13.660;2024-03-29T04:47:06;8.60;70.00
53412;DHT22;39307;52.870;13.660;2024-03-29T04:49:33;8.60;70.00
53412;DHT22;39307;52.870;13.660;2024-03-29T04:52:00;8.60;70.00
53412;DHT22;39307;52.870;13.660;2024-03-29T04:54:27;8.60;70.00
53412;DHT22;39307;52.870;13.660;2024-03-29T04:56:54;8.60;70.00
53412;DHT22;39307;52.870;13.660;2024-03-29T04:59:23;8.60;69.90
53412;DHT22;39307;52.870;13.660;2024-03-29T05:01:50;8.60;70.00
53412;DHT22;39307;52.870;13.660;2024-03-29T05:04:20;8.60;69.90
53412;DHT22;39307;52.870;13.660;2024-03-29T05:06:47;8.60;69.90
53412;DHT22;39307;52.870;13.660;2024-03-29T05:09:13;8.60;69.90
53412;DHT22;39307;52.870;13.660;2024-03-29T05:11:40;8.60;70.00
53412;DHT22;39307;52.870;13.660;2024-03-29T05:14:07;8.60;69.90
53412;DHT22;39307;52.870;13.660;2024-03-29T05:16:34;8.60;70.00
53412;DHT22;39307;52.870;13.660;2024-03-29T05:19:01;8.60;70.00
53412;DHT22;39307;52.870;13.660;2024-03-29T05:21:28;8.60;70.00
53412;DHT22;39307;52.870;13.660;2024-03-29T05:23:54;8.60;69.90
53412;DHT22;39307;52.870;13.660;2024-03-29T05:26:21;8.60;69.90
53412;DHT22;39307;52.870;13.660;2024-03-29T05:28:48;8.60;70.00
53412;DHT22;39307;52.870;13.660;2024-03-29T05:31:15;8.60;70.00
53412;DHT22;39307;52.870;13.660;2024-03-29T05:33:42;8.60;70.00
53412;DHT22;39307;52.870;13.660;2024-03-29T05:36:09;8.60;70.00
53412;DHT22;39307;52.870;13.660;2024-03-29T05:38:36;8.60;70.00
53412;DHT22;39307;52.870;13.660;2024-03-29T05:41:03;8.60;69.90
53412;DHT22;39307;52.870;13.660;2024-03-29T05:43:30;8.60;70.00
53412;DHT22;39307;52.870;13.660;2024-03-29T05:45:57;8.60;70.00
53412;DHT22;39307;52.870;13.660;2024-03-29T05:48:24;8.60;70.00
53412;DHT22;39307;52.870;13.660;2024-03-29T05:50:51;8.60;70.00
53412;DHT22;39307;52.870;13.660;2024-03-29T05:53:18;8.60;69.90
53412;DHT22;39307;52.870;13.660;2024-03-29T05:55:44;8.60;70.00
53412;DHT22;39307;52.870;13.660;2024-03-29T05:58:11;8.60;70.00
53412;DHT22;39307;52.870;13.660;2024-03-29T06:00:38;8.60;70.20
53412;DHT22;39307;52.870;13.660;2024-03-29T06:03:05;8.60;70.10
53412;DHT22;39307;52.870;13.660;2024-03-29T06:05:32;8.60;70.00
53412;DHT22;39307;52.870;13.660;2024-03-29T06:07:59;8.60;70.10
53412;DHT22;39307;52.870;13.660;2024-03-29T06:10:26;8.60;70.10
53412;DHT22;39307;52.870;13.660;2024-03-29T06:12:53;8.60;70.10
53412;DHT22;39307;52.870;13.660;2024-03-29T06:15:20;8.60;70.00
53412;DHT22;39307;52.870;13.660;2024-03-29T06:17:46;8.50;70.00
53412;DHT22;39307;52.870;13.660;2024-03-29T06:20:13;8.50;70.00
53412;DHT22;39307;52.870;13.660;2024-03-29T06:22:40;8.50;70.00
53412;DHT22;39307;52.870;13.660;2024-03-29T06:25:07;8.50;70.10
53412;DHT22;39307;52.870;13.660;2024-03-29T06:27:35;8.50;70.00
53412;DHT22;39307;52.870;13.660;2024-03-29T06:30:03;8.50;70.00
53412;DHT22;39307;52.870;13.660;2024-03-29T06:32:31;8.50;70.00
53412;DHT22;39307;52.870;13.660;2024-03-29T06:34:58;8.50;70.00
53412;DHT22;39307;52.870;13.660;2024-03-29T06:37:26;8.50;70.00
53412;DHT22;39307;52.870;13.660;2024-03-29T06:39:53;8.50;70.00
53412;DHT22;39307;52.870;13.660;2024-03-29T06:42:20;8.50;70.00
53412;DHT22;39307;52.870;13.660;2024-03-29T06:44:47;8.50;70.10
53412;DHT22;39307;52.870;13.660;2024-03-29T06:47:15;8.50;70.00
53412;DHT22;39307;52.870;13.660;2024-03-29T06:49:41;8.50;70.10
53412;DHT22;39307;52.870;13.660;2024-03-29T06:52:08;8.50;70.10
53412;DHT22;39307;52.870;13.660;2024-03-29T06:54:35;8.50;70.00
53412;DHT22;39307;52.870;13.660;2024-03-29T06:57:02;8.50;70.00
53412;DHT22;39307;52.870;13.660;2024-03-29T06:59:29;8.50;70.00
53412;DHT22;39307;52.870;13.660;2024-03-29T07:01:55;8.50;70.00
53412;DHT22;39307;52.870;13.660;2024-03-29T07:04:23;8.50;70.00
53412;DHT22;39307;52.870;13.660;2024-03-29T07:06:51;8.50;69.90
53412;DHT22;39307;52.870;13.660;2024-03-29T07:09:22;8.50;70.10
53412;DHT22;39307;52.870;13.660;2024-03-29T07:11:50;8.50;70.00
53412;DHT22;39307;52.870;13.660;2024-03-29T07:14:19;8.50;70.10
53412;DHT22;39307;52.870;13.660;2024-03-29T07:16:46;8.50;70.10
53412;DHT22;39307;52.870;13.660;2024-03-29T07:19:13;8.50;70.20
53412;DHT22;39307;52.870;13.660;2024-03-29T07:21:40;8.50;70.20
53412;DHT22;39307;52.870;13.660;2024-03-29T07:24:07;8.50;70.20
53412;DHT22;39307;52.870;13.660;2024-03-29T07:26:34;8.50;70.10
53412;DHT22;39307;52.870;13.660;2024-03-29T07:29:01;8.50;70.10
53412;DHT22;39307;52.870;13.660;2024-03-29T07:31:27;8.50;70.20
53412;DHT22;39307;52.870;13.660;2024-03-29T07:33:54;8.50;70.00
53412;DHT22;39307;52.870;13.660;2024-03-29T07:36:21;8.50;70.10
53412;DHT22;39307;52.870;13.660;2024-03-29T07:38:48;8.40;70.20
53412;DHT22;39307;52.870;13.660;2024-03-29T07:41:14;8.50;69.90
53412;DHT22;39307;52.870;13.660;2024-03-29T07:43:55;8.40;70.20
53412;DHT22;39307;52.870;13.660;2024-03-29T07:46:23;8.40;70.00
53412;DHT22;39307;52.870;13.660;2024-03-29T07:48:50;8.40;70.10
53412;DHT22;39307;52.870;13.660;2024-03-29T07:51:16;8.40;70.10
53412;DHT22;39307;52.870;13.660;2024-03-29T07:53:43;8.40;70.30
53412;DHT22;39307;52.870;13.660;2024-03-29T07:56:10;8.50;70.10
53412;DHT22;39307;52.870;13.660;2024-03-29T07:58:37;8.40;70.20
53412;DHT22;39307;52.870;13.660;2024-03-29T08:01:04;8.40;70.30
53412;DHT22;39307;52.870;13.660;2024-03-29T08:03:31;8.40;70.10
53412;DHT22;39307;52.870;13.660;2024-03-29T08:05:59;8.40;70.10
53412;DHT22;39307;52.870;13.660;2024-03-29T08:08:27;8.40;70.10
53412;DHT22;39307;52.870;13.660;2024-03-29T08:10:54;8.40;70.10
53412;DHT22;39307;52.870;13.660;2024-03-29T08:13:21;8.40;70.10
53412;DHT22;39307;52.870;13.660;2024-03-29T08:15:48;8.40;70.10
53412;DHT22;39307;52.870;13.660;2024-03-29T08:18:15;8.40;70.00
53412;DHT22;39307;52.870;13.660;2024-03-29T08:20:42;8.40;70.00
53412;DHT22;39307;52.870;13.660;2024-03-29T08:23:09;8.40;70.10
53412;DHT22;39307;52.870;13.660;2024-03-29T08:25:36;8.40;70.10
53412;DHT22;39307;52.870;13.660;2024-03-29T08:28:03;8.40;70.30
53412;DHT22;39307;52.870;13.660;2024-03-29T08:30:30;8.40;70.00
53412;DHT22;39307;52.870;13.660;2024-03-29T08:32:57;8.40;70.10
53412;DHT22;39307;52.870;13.660;2024-03-29T08:35:23;8.40;70.30
53412;DHT22;39307;52.870;13.660;2024-03-29T08:37:50;8.40;70.20
53412;DHT22;39307;52.870;13.660;2024-03-29T08:40:16;8.40;70.30
53412;DHT22;39307;52.870;13.660;2024-03-29T08:42:43;8.40;70.10
53412;DHT22;39307;52.870;13.660;2024-03-29T08:45:10;8.40;70.10
53412;DHT22;39307;52.870;13.660;2024-03-29T08:47:36;8.40;70.20
53412;DHT22;39307;52.870;13.660;2024-03-29T08:50:03;8.40;70.10
53412;DHT22;39307;52.870;13.660;2024-03-29T08:52:30;8.40;70.30
53412;DHT22;39307;52.870;13.660;2024-03-29T08:54:59;8.40;70.20
53412;DHT22;39307;52.870;13.660;2024-03-29T08:57:25;8.40;70.20
53412;DHT22;39307;52.870;13.660;2024-03-29T08:59:52;8.40;70.20
53412;DHT22;39307;52.870;13.660;2024-03-29T09:02:19;8.40;70.20
53412;DHT22;39307;52.870;13.660;2024-03-29T09:04:46;8.40;70.30
53412;DHT22;39307;52.870;13.660;2024-03-29T09:07:13;8.40;70.10
53412;DHT22;39307;52.870;13.660;2024-03-29T09:09:40;8.40;69.90
53412;DHT22;39307;52.870;13.660;2024-03-29T09:12:07;8.40;70.00
53412;DHT22;39307;52.870;13.660;2024-03-29T09:14:35;8.40;70.00
53412;DHT22;39307;52.870;13.660;2024-03-29T09:17:02;8.40;70.10
53412;DHT22;39307;52.870;13.660;2024-03-29T09:19:29;8.40;69.90
53412;DHT22;39307;52.870;13.660;2024-03-29T09:21:56;8.40;69.90
53412;DHT22;39307;52.870;13.660;2024-03-29T09:24:22;8.40;69.90
53412;DHT22;39307;52.870;13.660;2024-03-29T09:26:49;8.40;69.80
53412;DHT22;39307;52.870;13.660;2024-03-29T09:29:16;8.30;70.20
53412;DHT22;39307;52.870;13.660;2024-03-29T09:31:43;8.40;70.20
53412;DHT22;39307;52.870;13.660;2024-03-29T09:34:10;8.40;69.90
53412;DHT22;39307;52.870;13.660;2024-03-29T09:36:37;8.40;70.10
53412;DHT22;39307;52.870;13.660;2024-03-29T09:39:04;8.30;69.90
53412;DHT22;39307;52.870;13.660;2024-03-29T09:41:31;8.30;69.90
53412;DHT22;39307;52.870;13.660;2024-03-29T09:43:59;8.40;70.20
53412;DHT22;39307;52.870;13.660;2024-03-29T09:46:33;8.30;70.40
53412;DHT22;39307;52.870;13.660;2024-03-29T09:49:00;8.30;70.00
53412;DHT22;39307;52.870;13.660;2024-03-29T09:51:27;8.30;69.90
53412;DHT22;39307;52.870;13.660;2024-03-29T09:53:58;8.30;70.30
53412;DHT22;39307;52.870;13.660;2024-03-29T09:56:29;8.30;70.20
53412;DHT22;39307;52.870;13.660;2024-03-29T09:58:57;8.30;70.30
53412;DHT22;39307;52.870;13.660;2024-03-29T10:01:24;8.30;70.60
53412;DHT22;39307;52.870;13.660;2024-03-29T10:03:50;8.30;70.30
53412;DHT22;39307;52.870;13.660;2024-03-29T10:06:18;8.30;70.20
53412;DHT22;39307;52.870;13.660;2024-03-29T10:08:45;8.30;70.40
53412;DHT22;39307;52.870;13.660;2024-03-29T10:11:14;8.30;70.10
53412;DHT22;39307;52.870;13.660;2024-03-29T10:13:41;8.30;70.20
53412;DHT22;39307;52.870;13.660;2024-03-29T10:16:07;8.30;69.90
53412;DHT22;39307;52.870;13.660;2024-03-29T10:18:35;8.30;69.80
53412;DHT22;39307;52.870;13.660;2024-03-29T10:21:04;8.30;69.90
53412;DHT22;39307;52.870;13.660;2024-03-29T10:23:32;8.30;69.80
53412;DHT22;39307;52.870;13.660;2024-03-29T10:26:00;8.30;70.20
53412;DHT22;39307;52.870;13.660;2024-03-29T10:28:36;8.30;69.90
53412;DHT22;39307;52.870;13.660;2024-03-29T10:31:04;8.30;69.90
53412;DHT22;39307;52.870;13.660;2024-03-29T10:33:34;8.30;70.00
53412;DHT22;39307;52.870;13.660;2024-03-29T10:36:02;8.30;69.80
53412;DHT22;39307;52.870;13.660;2024-03-29T10:38:30;8.30;70.30
53412;DHT22;39307;52.870;13.660;2024-03-29T10:40:57;8.30;70.10
53412;DHT22;39307;52.870;13.660;2024-03-29T10:43:24;8.30;69.90
53412;DHT22;39307;52.870;13.660;2024-03-29T10:45:53;8.30;69.80
53412;DHT22;39307;52.870;13.660;2024-03-29T10:48:22;8.30;70.00
53412;DHT22;39307;52.870;13.660;2024-03-29T10:50:49;8.30;70.00
53412;DHT22;39307;52.870;13.660;2024-03-29T10:53:17;8.30;69.90
53412;DHT22;39307;52.870;13.660;2024-03-29T10:55:43;8.30;69.90
53412;DHT22;39307;52.870;13.660;2024-03-29T10:58:11;8.30;69.90
53412;DHT22;39307;52.870;13.660;2024-03-29T11:00:48;8.30;69.80
53412;DHT22;39307;52.870;13.660;2024-03-29T11:03:26;8.30;69.90
53412;DHT22;39307;52.870;13.660;2024-03-29T11:06:04;8.30;69.80
53412;DHT22;39307;52.870;13.660;2024-03-29T11:08:34;8.30;70.00
53412;DHT22;39307;52.870;13.660;2024-03-29T11:11:04;8.30;69.90
53412;DHT22;39307;52.870;13.660;2024-03-29T11:16:08;8.30;70.20
53412;DHT22;39307;52.870;13.660;2024-03-29T11:18:37;8.20;69.90
53412;DHT22;39307;52.870;13.660;2024-03-29T11:21:05;8.30;70.20
53412;DHT22;39307;52.870;13.660;2024-03-29T11:23:32;8.30;69.90
53412;DHT22;39307;52.870;13.660;2024-03-29T11:26:00;8.30;69.90
53412;DHT22;39307;52.870;13.660;2024-03-29T11:28:30;8.30;69.80
53412;DHT22;39307;52.870;13.660;2024-03-29T11:31:02;8.30;70.00
53412;DHT22;39307;52.870;13.660;2024-03-29T11:33:31;8.30;69.80
53412;DHT22;39307;52.870;13.660;2024-03-29T11:36:32;8.30;69.80
53412;DHT22;39307;52.870;13.660;2024-03-29T11:38:58;8.30;69.80
53412;DHT22;39307;52.870;13.660;2024-03-29T11:41:26;8.30;69.80
53412;DHT22;39307;52.870;13.660;2024-03-29T11:43:54;8.30;70.10
53412;DHT22;39307;52.870;13.660;2024-03-29T11:46:21;8.30;70.00
53412;DHT22;39307;52.870;13.660;2024-03-29T11:48:49;8.30;69.90
53412;DHT22;39307;52.870;13.660;2024-03-29T11:51:18;8.30;70.00
53412;DHT22;39307;52.870;13.660;2024-03-29T11:53:46;8.30;70.00
53412;DHT22;39307;52.870;13.660;2024-03-29T11:56:13;8.30;70.00
53412;DHT22;39307;52.870;13.660;2024-03-29T11:58:41;8.30;69.90
53412;DHT22;39307;52.870;13.660;2024-03-29T12:01:08;8.30;70.30
53412;DHT22;39307;52.870;13.660;2024-03-29T12:03:38;8.30;70.00
53412;DHT22;39307;52.870;13.660;2024-03-29T12:06:06;8.30;70.10
53412;DHT22;39307;52.870;13.660;2024-03-29T12:08:40;8.30;70.30
53412;DHT22;39307;52.870;13.660;2024-03-29T12:11:08;8.30;70.00
53412;DHT22;39307;52.870;13.660;2024-03-29T12:13:35;8.30;70.50
53412;DHT22;39307;52.870;13.660;2024-03-29T12:16:02;8.30;70.40
53412;DHT22;39307;52.870;13.660;2024-03-29T12:18:29;8.30;70.10
53412;DHT22;39307;52.870;13.660;2024-03-29T12:20:56;8.30;70.30
53412;DHT22;39307;52.870;13.660;2024-03-29T12:23:23;8.30;70.00
53412;DHT22;39307;52.870;13.660;2024-03-29T12:25:52;8.30;70.10
53412;DHT22;39307;52.870;13.660;2024-03-29T12:28:20;8.30;70.10
53412;DHT22;39307;52.870;13.660;2024-03-29T12:30:48;8.30;70.00
53412;DHT22;39307;52.870;13.660;2024-03-29T12:33:17;8.30;70.20
53412;DHT22;39307;52.870;13.660;2024-03-29T12:35:45;8.30;70.50
53412;DHT22;39307;52.870;13.660;2024-03-29T12:38:13;8.30;70.50
53412;DHT22;39307;52.870;13.660;2024-03-29T12:40:46;8.30;70.40
53412;DHT22;39307;52.870;13.660;2024-03-29T12:43:19;8.30;70.40
53412;DHT22;39307;52.870;13.660;2024-03-29T12:45:49;8.30;70.70
53412;DHT22;39307;52.870;13.660;2024-03-29T12:48:19;8.30;70.30
53412;DHT22;39307;52.870;13.660;2024-03-29T12:50:47;8.30;70.20
53412;DHT22;39307;52.870;13.660;2024-03-29T12:53:15;8.30;70.60
53412;DHT22;39307;52.870;13.660;2024-03-29T12:55:44;8.30;70.70
53412;DHT22;39307;52.870;13.660;2024-03-29T12:58:17;8.30;70.50
53412;DHT22;39307;52.870;13.660;2024-03-29T13:00:51;8.30;70.60
53412;DHT22;39307;52.870;13.660;2024-03-29T13:03:18;8.30;70.20
53412;DHT22;39307;52.870;13.660;2024-03-29T13:05:45;8.30;70.60
53412;DHT22;39307;52.870;13.660;2024-03-29T13:08:13;8.30;70.30
53412;DHT22;39307;52.870;13.660;2024-03-29T13:10:41;8.30;70.50
53412;DHT22;39307;52.870;13.660;2024-03-29T13:13:09;8.30;70.50
53412;DHT22;39307;52.870;13.660;2024-03-29T13:15:38;8.30;70.50
53412;DHT22;39307;52.870;13.660;2024-03-29T13:18:05;8.30;70.70
53412;DHT22;39307;52.870;13.660;2024-03-29T13:20:35;8.30;70.40
53412;DHT22;39307;52.870;13.660;2024-03-29T13:23:03;8.30;71.00
53412;DHT22;39307;52.870;13.660;2024-03-29T13:25:30;8.30;70.20
53412;DHT22;39307;52.870;13.660;2024-03-29T13:27:57;8.30;70.40
53412;DHT22;39307;52.870;13.660;2024-03-29T13:30:26;8.30;71.10
53412;DHT22;39307;52.870;13.660;2024-03-29T13:32:53;8.30;70.50
53412;DHT22;39307;52.870;13.660;2024-03-29T13:35:21;8.30;70.70
53412;DHT22;39307;52.870;13.660;2024-03-29T13:37:50;8.30;70.80
53412;DHT22;39307;52.870;13.660;2024-03-29T13:40:19;8.30;70.90
53412;DHT22;39307;52.870;13.660;2024-03-29T13:42:46;8.30;70.50
53412;DHT22;39307;52.870;13.660;2024-03-29T13:45:13;8.30;70.80
53412;DHT22;39307;52.870;13.660;2024-03-29T13:47:41;8.30;70.70
53412;DHT22;39307;52.870;13.660;2024-03-29T13:50:10;8.30;71.30
53412;DHT22;39307;52.870;13.660;2024-03-29T13:52:37;8.30;70.50
53412;DHT22;39307;52.870;13.660;2024-03-29T13:55:05;8.30;70.60
53412;DHT22;39307;52.870;13.660;2024-03-29T13:57:32;8.30;70.50
53412;DHT22;39307;52.870;13.660;2024-03-29T13:59:58;8.30;70.70
53412;DHT22;39307;52.870;13.660;2024-03-29T14:02:26;8.30;70.90
53412;DHT22;39307;52.870;13.660;2024-03-29T14:04:52;8.30;70.70
53412;DHT22;39307;52.870;13.660;2024-03-29T14:07:20;8.30;70.90
53412;DHT22;39307;52.870;13.660;2024-03-29T14:09:47;8.30;70.90
53412;DHT22;39307;52.870;13.660;2024-03-29T14:12:14;8.30;70.60
53412;DHT22;39307;52.870;13.660;2024-03-29T14:14:41;8.30;70.60
53412;DHT22;39307;52.870;13.660;2024-03-29T14:17:08;8.30;71.10
53412;DHT22;39307;52.870;13.660;2024-03-29T14:19:36;8.30;71.20
53412;DHT22;39307;52.870;13.660;2024-03-29T14:22:03;8.30;70.80
53412;DHT22;39307;52.870;13.660;2024-03-29T14:24:31;8.30;70.80
53412;DHT22;39307;52.870;13.660;2024-03-29T14:26:59;8.30;71.10
53412;DHT22;39307;52.870;13.660;2024-03-29T14:29:26;8.30;71.20
53412;DHT22;39307;52.870;13.660;2024-03-29T14:31:53;8.30;70.50
53412;DHT22;39307;52.870;13.660;2024-03-29T14:34:19;8.30;70.40
53412;DHT22;39307;52.870;13.660;2024-03-29T14:36:46;8.30;71.00
53412;DHT22;39307;52.870;13.660;2024-03-29T14:39:18;8.40;71.10
53412;DHT22;39307;52.870;13.660;2024-03-29T14:41:46;8.30;70.40
53412;DHT22;39307;52.870;13.660;2024-03-29T14:44:16;8.30;70.40
53412;DHT22;39307;52.870;13.660;2024-03-29T14:46:44;8.30;70.40
53412;DHT22;39307;52.870;13.660;2024-03-29T14:49:11;8.30;71.00
53412;DHT22;39307;52.870;13.660;2024-03-29T14:51:38;8.40;71.00
53412;DHT22;39307;52.870;13.660;2024-03-29T14:54:05;8.40;70.50
53412;DHT22;39307;52.870;13.660;2024-03-29T14:56:32;8.40;71.00
53412;DHT22;39307;52.870;13.660;2024-03-29T14:59:08;8.40;71.00
53412;DHT22;39307;52.870;13.660;2024-03-29T15:01:36;8.40;70.70
53412;DHT22;39307;52.870;13.660;2024-03-29T15:04:03;8.40;70.90
53412;DHT22;39307;52.870;13.660;2024-03-29T15:06:30;8.40;70.80
53412;DHT22;39307;52.870;13.660;2024-03-29T15:08:57;8.40;70.80
53412;DHT22;39307;52.870;13.660;2024-03-29T15:11:24;8.40;70.70
53412;DHT22;39307;52.870;13.660;2024-03-29T15:13:51;8.40;70.70
53412;DHT22;39307;52.870;13.660;2024-03-29T15:16:18;8.40;70.80
53412;DHT22;39307;52.870;13.660;2024-03-29T15:18:45;8.40;70.60
53412;DHT22;39307;52.870;13.660;2024-03-29T15:21:12;8.40;70.50
53412;DHT22;39307;52.870;13.660;2024-03-29T15:23:39;8.40;70.60
53412;DHT22;39307;52.870;13.660;2024-03-29T15:26:06;8.40;70.60
53412;DHT22;39307;52.870;13.660;2024-03-29T15:28:32;8.40;70.60
53412;DHT22;39307;52.870;13.660;2024-03-29T15:31:06;8.40;70.80
53412;DHT22;39307;52.870;13.660;2024-03-29T15:33:37;8.40;70.80
53412;DHT22;39307;52.870;13.660;2024-03-29T15:36:04;8.40;70.60